createdAt,value
2022-11-20T00:00:48.473Z,-2.48
2022-11-20T00:03:26.082Z,-2.54
2022-11-20T00:06:04.776Z,-2.60
2022-11-20T00:08:38.723Z,-2.60
2022-11-20T00:11:16.138Z,-2.61
2022-11-20T00:13:51.800Z,-2.60
2022-11-20T00:16:27.423Z,-2.58
2022-11-20T00:19:00.929Z,-2.56
2022-11-20T00:21:34.515Z,-2.51
2022-11-20T00:24:11.205Z,-2.45
2022-11-20T00:26:44.754Z,-2.39
2022-11-20T00:29:18.725Z,-2.39
2022-11-20T00:31:52.193Z,-2.38
2022-11-20T00:34:25.441Z,-2.40
2022-11-20T00:36:59.112Z,-2.41
2022-11-20T00:39:33.070Z,-2.43
2022-11-20T00:42:07.103Z,-2.39
2022-11-20T00:44:41.128Z,-2.34
2022-11-20T00:47:14.783Z,-2.35
2022-11-20T00:49:48.642Z,-2.31
2022-11-20T00:52:22.470Z,-2.28
2022-11-20T00:54:56.254Z,-2.29
2022-11-20T00:57:30.044Z,-2.28
2022-11-20T01:00:03.652Z,-2.25
2022-11-20T01:02:37.389Z,-2.22
2022-11-20T01:05:11.516Z,-2.21
2022-11-20T01:07:45.157Z,-2.24
2022-11-20T01:10:19.185Z,-2.27
2022-11-20T01:13:13.365Z,-2.26
2022-11-20T01:15:47.074Z,-2.25
2022-11-20T01:18:20.552Z,-2.28
2022-11-20T01:20:54.629Z,-2.30
2022-11-20T01:23:28.076Z,-2.31
2022-11-20T01:26:01.649Z,-2.29
2022-11-20T01:28:35.787Z,-2.23
2022-11-20T01:31:18.135Z,-2.16
2022-11-20T01:33:53.976Z,-2.15
2022-11-20T01:36:31.291Z,-2.12
2022-11-20T01:39:06.994Z,-2.08
2022-11-20T01:41:58.772Z,-2.11
2022-11-20T01:44:51.158Z,-2.12
2022-11-20T01:47:29.815Z,-2.09
2022-11-20T01:50:07.143Z,-2.10
2022-11-20T01:52:48.594Z,-2.11
2022-11-20T01:55:26.599Z,-2.11
2022-11-20T01:58:00.608Z,-2.12
2022-11-20T02:00:34.118Z,-2.12
2022-11-20T02:03:12.403Z,-2.12
2022-11-20T02:05:50.604Z,-2.15
2022-11-20T02:08:24.520Z,-2.16
2022-11-20T02:10:58.241Z,-2.16
2022-11-20T02:13:48.754Z,-2.18
2022-11-20T02:16:26.650Z,-2.22
2022-11-20T02:19:01.986Z,-2.24
2022-11-20T02:21:43.661Z,-2.20
2022-11-20T02:24:20.063Z,-2.16
2022-11-20T02:26:56.840Z,-2.17
2022-11-20T02:29:35.116Z,-2.19
2022-11-20T02:32:08.599Z,-2.17
2022-11-20T02:34:42.474Z,-2.17
2022-11-20T02:37:16.489Z,-2.17
2022-11-20T02:39:51.668Z,-2.23
2022-11-20T02:42:25.556Z,-2.28
2022-11-20T02:44:59.314Z,-2.28
2022-11-20T02:47:32.384Z,-2.25
2022-11-20T02:50:06.406Z,-2.26
2022-11-20T02:52:40.225Z,-2.25
2022-11-20T02:55:14.184Z,-2.22
2022-11-20T02:57:48.385Z,-2.26
2022-11-20T03:00:22.610Z,-2.31
2022-11-20T03:02:56.224Z,-2.36
2022-11-20T03:05:29.541Z,-2.40
2022-11-20T03:08:03.036Z,-2.45
2022-11-20T03:10:36.459Z,-2.47
2022-11-20T03:13:10.061Z,-2.48
2022-11-20T03:15:43.789Z,-2.52
2022-11-20T03:18:17.153Z,-2.55
2022-11-20T03:20:50.604Z,-2.58
2022-11-20T03:23:23.907Z,-2.59
2022-11-20T03:25:57.570Z,-2.61
2022-11-20T03:28:31.268Z,-2.64
2022-11-20T03:31:09.822Z,-2.67
2022-11-20T03:33:44.865Z,-2.70
2022-11-20T03:36:20.151Z,-2.71
2022-11-20T03:38:55.499Z,-2.72
2022-11-20T03:41:31.116Z,-2.72
2022-11-20T03:44:06.479Z,-2.75
2022-11-20T03:46:40.459Z,-2.79
2022-11-20T03:49:13.898Z,-2.82
2022-11-20T03:51:48.545Z,-2.84
2022-11-20T03:54:22.182Z,-2.85
2022-11-20T03:56:56.060Z,-2.88
2022-11-20T03:59:29.351Z,-2.90
2022-11-20T04:02:02.868Z,-2.91
2022-11-20T04:04:36.479Z,-2.90
2022-11-20T04:07:10.274Z,-2.89
2022-11-20T04:09:43.558Z,-2.87
2022-11-20T04:12:16.763Z,-2.86
2022-11-20T04:14:50.711Z,-2.88
2022-11-20T04:17:24.159Z,-2.88
2022-11-20T04:19:57.422Z,-2.90
2022-11-20T04:22:30.936Z,-2.94
2022-11-20T04:25:04.979Z,-2.96
2022-11-20T04:27:38.650Z,-2.99
2022-11-20T04:30:14.293Z,-3.00
2022-11-20T04:32:47.712Z,-3.02
2022-11-20T04:35:21.383Z,-3.03
2022-11-20T04:37:57.255Z,-3.06
2022-11-20T04:40:30.999Z,-3.07
2022-11-20T04:43:04.532Z,-3.10
2022-11-20T04:45:37.866Z,-3.13
2022-11-20T04:48:11.267Z,-3.15
2022-11-20T04:50:46.032Z,-3.19
2022-11-20T04:53:20.382Z,-3.19
2022-11-20T04:55:54.429Z,-3.22
2022-11-20T04:58:28.223Z,-3.22
2022-11-20T05:01:07.696Z,-3.21
2022-11-20T05:03:42.672Z,-3.20
2022-11-20T05:06:17.812Z,-3.21
2022-11-20T05:09:00.619Z,-3.26
2022-11-20T05:11:34.640Z,-3.29
2022-11-20T05:14:08.139Z,-3.32
2022-11-20T05:16:42.311Z,-3.33
2022-11-20T05:19:15.980Z,-3.35
2022-11-20T05:21:49.748Z,-3.34
2022-11-20T05:24:23.375Z,-3.33
2022-11-20T05:26:57.141Z,-3.32
2022-11-20T05:29:30.703Z,-3.32
2022-11-20T05:32:04.451Z,-3.30
2022-11-20T05:34:38.095Z,-3.32
2022-11-20T05:37:11.252Z,-3.35
2022-11-20T05:39:44.703Z,-3.39
2022-11-20T05:42:33.899Z,-3.43
2022-11-20T05:45:09.521Z,-3.44
2022-11-20T05:47:42.887Z,-3.45
2022-11-20T05:50:16.821Z,-3.49
2022-11-20T05:52:50.509Z,-3.52
2022-11-20T05:55:24.289Z,-3.54
2022-11-20T05:57:58.692Z,-3.54
2022-11-20T06:00:32.180Z,-3.53
2022-11-20T06:03:05.841Z,-3.54
2022-11-20T06:05:39.547Z,-3.56
2022-11-20T06:08:13.186Z,-3.58
2022-11-20T06:10:46.712Z,-3.60
2022-11-20T06:13:20.182Z,-3.61
2022-11-20T06:15:55.339Z,-3.59
2022-11-20T06:18:30.936Z,-3.57
2022-11-20T06:21:10.238Z,-3.55
2022-11-20T06:23:46.197Z,-3.57
2022-11-20T06:26:20.988Z,-3.57
2022-11-20T06:28:55.511Z,-3.57
2022-11-20T06:31:30.063Z,-3.57
2022-11-20T06:34:03.582Z,-3.57
2022-11-20T06:36:37.794Z,-3.54
2022-11-20T06:39:11.031Z,-3.50
2022-11-20T06:41:44.869Z,-3.50
2022-11-20T06:44:18.605Z,-3.48
2022-11-20T06:46:52.393Z,-3.45
2022-11-20T06:49:26.690Z,-3.45
2022-11-20T06:52:00.121Z,-3.42
2022-11-20T06:54:33.391Z,-3.39
2022-11-20T06:57:06.931Z,-3.37
2022-11-20T06:59:40.658Z,-3.33
2022-11-20T07:02:15.395Z,-3.29
2022-11-20T07:04:49.237Z,-3.24
2022-11-20T07:07:23.096Z,-3.22
2022-11-20T07:09:56.812Z,-3.23
2022-11-20T07:12:30.013Z,-3.24
2022-11-20T07:15:03.746Z,-3.26
2022-11-20T07:17:37.135Z,-3.25
2022-11-20T07:20:12.465Z,-3.18
2022-11-20T07:22:46.141Z,-3.12
2022-11-20T07:25:19.878Z,-3.09
2022-11-20T07:27:53.501Z,-3.05
2022-11-20T07:30:27.579Z,-2.98
2022-11-20T07:33:01.694Z,-2.94
2022-11-20T07:35:35.718Z,-2.89
2022-11-20T07:38:09.439Z,-2.80
2022-11-20T07:40:43.132Z,-2.73
2022-11-20T07:43:16.697Z,-2.68
2022-11-20T07:45:50.316Z,-2.65
2022-11-20T07:48:24.105Z,-2.58
2022-11-20T07:50:59.409Z,-2.52
2022-11-20T07:53:33.429Z,-2.45
2022-11-20T07:56:08.124Z,-2.37
2022-11-20T07:58:41.440Z,-2.30
2022-11-20T08:01:15.200Z,-2.26
2022-11-20T08:03:48.600Z,-2.21
2022-11-20T08:06:22.173Z,-2.20
2022-11-20T08:08:55.726Z,-2.18
2022-11-20T08:11:47.521Z,-2.15
2022-11-20T08:14:21.090Z,-2.10
2022-11-20T08:16:54.733Z,-2.06
2022-11-20T08:19:28.048Z,-1.96
2022-11-20T08:22:01.747Z,-1.78
2022-11-20T08:24:35.426Z,-1.59
2022-11-20T08:27:08.820Z,-1.43
2022-11-20T08:29:42.465Z,-1.20
2022-11-20T08:32:16.470Z,-0.89
2022-11-20T08:34:49.852Z,-0.61
2022-11-20T08:37:23.676Z,-0.35
2022-11-20T08:39:58.399Z,-0.08
2022-11-20T08:42:31.664Z,0.12
2022-11-20T08:45:06.024Z,0.26
2022-11-20T08:47:39.299Z,0.44
2022-11-20T08:50:14.885Z,0.55
2022-11-20T08:52:48.292Z,1.03
2022-11-20T08:55:22.427Z,2.59
2022-11-20T08:57:56.390Z,3.41
2022-11-20T09:00:29.797Z,3.19
2022-11-20T09:03:03.459Z,2.92
2022-11-20T09:05:37.087Z,2.49
2022-11-20T09:08:11.088Z,2.10
2022-11-20T09:10:44.527Z,1.74
2022-11-20T09:13:18.436Z,1.42
2022-11-20T09:15:57.634Z,1.17
2022-11-20T09:18:33.117Z,1.02
2022-11-20T09:21:09.055Z,0.94
2022-11-20T09:23:43.092Z,0.90
2022-11-20T09:26:17.184Z,0.89
2022-11-20T09:28:55.338Z,0.88
2022-11-20T09:31:30.707Z,0.85
2022-11-20T09:34:04.321Z,0.79
2022-11-20T09:36:38.000Z,0.73
2022-11-20T09:39:11.886Z,0.59
2022-11-20T09:42:04.453Z,0.47
2022-11-20T09:44:59.047Z,0.41
2022-11-20T09:47:45.095Z,0.42
2022-11-20T09:50:32.300Z,0.44
2022-11-20T09:53:22.781Z,0.49
2022-11-20T09:55:57.577Z,0.58
2022-11-20T09:58:38.726Z,0.73
2022-11-20T10:01:16.765Z,0.88
2022-11-20T10:04:00.183Z,0.98
2022-11-20T10:06:37.210Z,1.19
2022-11-20T10:09:25.056Z,1.50
2022-11-20T10:12:09.343Z,2.12
2022-11-20T10:14:55.281Z,2.49
2022-11-20T10:17:42.311Z,2.66
2022-11-20T10:20:24.378Z,2.65
2022-11-20T10:23:15.028Z,3.01
2022-11-20T10:25:54.422Z,3.75
2022-11-20T10:28:53.964Z,4.59
2022-11-20T10:31:38.608Z,5.16
2022-11-20T10:34:23.032Z,6.21
2022-11-20T10:37:05.066Z,6.91
2022-11-20T10:39:44.440Z,7.57
2022-11-20T10:42:27.833Z,7.56
2022-11-20T10:45:18.868Z,7.02
2022-11-20T10:47:53.029Z,6.52
2022-11-20T10:50:28.231Z,6.13
2022-11-20T10:53:14.856Z,5.83
2022-11-20T10:55:53.605Z,5.63
2022-11-20T10:58:38.915Z,5.67
2022-11-20T11:01:18.830Z,6.34
2022-11-20T11:03:54.329Z,6.68
2022-11-20T11:06:35.579Z,6.79
2022-11-20T11:09:15.695Z,6.85
2022-11-20T11:11:49.172Z,6.64
2022-11-20T11:14:25.850Z,6.31
2022-11-20T11:17:00.612Z,5.87
2022-11-20T11:19:34.219Z,5.40
2022-11-20T11:22:22.894Z,5.41
2022-11-20T11:24:57.499Z,5.68
2022-11-20T11:27:31.222Z,6.10
2022-11-20T11:30:18.617Z,6.47
2022-11-20T11:32:52.552Z,7.50
2022-11-20T11:35:31.433Z,8.46
2022-11-20T11:38:19.261Z,8.87
2022-11-20T11:40:56.162Z,9.00
2022-11-20T11:43:50.826Z,9.16
2022-11-20T11:46:39.040Z,8.95
2022-11-20T11:49:21.948Z,8.58
2022-11-20T11:52:14.555Z,8.44
2022-11-20T11:54:54.007Z,8.34
2022-11-20T11:57:33.072Z,8.13
2022-11-20T12:00:13.125Z,8.03
2022-11-20T12:03:00.727Z,8.25
2022-11-20T12:05:44.380Z,8.68
2022-11-20T12:08:25.794Z,8.99
2022-11-20T12:11:06.327Z,9.16
2022-11-20T12:13:49.913Z,8.92
2022-11-20T12:16:25.536Z,8.37
2022-11-20T12:18:59.244Z,7.65
2022-11-20T12:21:44.841Z,7.09
2022-11-20T12:24:44.259Z,6.70
2022-11-20T12:27:43.054Z,6.30
2022-11-20T12:30:19.101Z,6.11
2022-11-20T12:33:15.147Z,6.33
2022-11-20T12:36:05.455Z,6.65
2022-11-20T12:39:10.304Z,6.91
2022-11-20T12:42:18.663Z,6.96
2022-11-20T12:45:20.811Z,6.95
2022-11-20T12:48:09.037Z,6.95
2022-11-20T12:54:02.701Z,6.80
2022-11-20T12:56:44.540Z,6.47
2022-11-20T12:59:37.154Z,6.02
2022-11-20T13:02:27.235Z,5.60
2022-11-20T13:05:21.581Z,5.21
2022-11-20T13:07:59.350Z,4.92
2022-11-20T13:10:46.613Z,4.74
2022-11-20T13:13:27.412Z,4.57
2022-11-20T13:16:08.716Z,4.41
2022-11-20T13:18:47.226Z,4.25
2022-11-20T13:21:24.047Z,4.09
2022-11-20T13:24:08.811Z,3.96
2022-11-20T13:26:43.069Z,3.82
2022-11-20T13:29:21.704Z,3.67
2022-11-20T13:31:53.826Z,3.59
2022-11-20T13:34:35.828Z,3.51
2022-11-20T13:37:30.909Z,3.33
2022-11-20T13:40:25.530Z,3.24
2022-11-20T13:43:11.069Z,3.20
2022-11-20T13:45:57.741Z,3.16
2022-11-20T13:48:36.108Z,3.12
2022-11-20T13:51:33.648Z,3.04
2022-11-20T13:54:38.269Z,2.89
2022-11-20T13:57:31.047Z,2.79
2022-11-20T14:00:14.453Z,2.69
2022-11-20T14:02:57.180Z,2.67
2022-11-20T14:05:31.105Z,2.70
2022-11-20T14:08:09.594Z,2.68
2022-11-20T14:10:43.857Z,2.64
2022-11-20T14:13:23.114Z,2.60
2022-11-20T14:16:01.519Z,2.54
2022-11-20T14:18:35.995Z,2.51
2022-11-20T14:21:13.745Z,2.49
2022-11-20T14:23:48.456Z,2.46
2022-11-20T14:26:23.561Z,2.44
2022-11-20T14:28:58.556Z,2.39
2022-11-20T14:31:33.927Z,2.33
2022-11-20T14:34:08.773Z,2.31
2022-11-20T14:36:43.362Z,2.29
2022-11-20T14:39:25.960Z,2.27
2022-11-20T14:42:00.596Z,2.24
2022-11-20T14:44:38.831Z,2.22
2022-11-20T14:47:19.388Z,2.20
2022-11-20T14:49:54.326Z,2.16
2022-11-20T14:52:30.291Z,2.12
2022-11-20T14:55:05.354Z,2.06
2022-11-20T14:57:40.602Z,2.01
2022-11-20T15:00:26.137Z,1.98
2022-11-20T15:03:00.536Z,1.92
2022-11-20T15:08:33.080Z,1.76
2022-11-20T15:11:18.888Z,1.70
2022-11-20T15:13:54.145Z,1.65
2022-11-20T15:16:29.779Z,1.61
2022-11-20T15:19:05.173Z,1.61
2022-11-20T15:21:39.226Z,1.61
2022-11-20T15:24:14.676Z,1.58
2022-11-20T15:26:49.591Z,1.51
2022-11-20T15:29:26.418Z,1.48
2022-11-20T15:32:00.588Z,1.40
2022-11-20T15:34:35.216Z,1.33
2022-11-20T15:37:09.343Z,1.25
2022-11-20T15:39:47.495Z,1.17
2022-11-20T15:42:21.781Z,1.12
2022-11-20T15:44:55.576Z,1.05
2022-11-20T15:47:33.019Z,0.97
2022-11-20T15:50:13.017Z,0.87
2022-11-20T15:52:48.210Z,0.78
2022-11-20T15:55:23.219Z,0.70
2022-11-20T15:57:58.144Z,0.63
2022-11-20T16:00:32.860Z,0.56
2022-11-20T16:03:07.993Z,0.49
2022-11-20T16:05:43.514Z,0.45
2022-11-20T16:08:18.708Z,0.40
2022-11-20T16:10:52.848Z,0.35
2022-11-20T16:13:44.691Z,0.29
2022-11-20T16:16:24.730Z,0.23
2022-11-20T16:18:59.645Z,0.18
2022-11-20T16:21:36.246Z,0.16
2022-11-20T16:24:14.785Z,0.11
2022-11-20T16:26:49.132Z,0.02
2022-11-20T16:29:24.231Z,-0.03
2022-11-20T16:32:02.578Z,-0.08
2022-11-20T16:34:37.687Z,-0.10
2022-11-20T16:37:12.478Z,-0.12
2022-11-20T16:39:48.092Z,-0.11
2022-11-20T16:42:22.917Z,-0.11
2022-11-20T16:44:57.644Z,-0.13
2022-11-20T16:47:37.013Z,-0.14
2022-11-20T16:50:13.256Z,-0.16
2022-11-20T16:52:47.803Z,-0.17
2022-11-20T16:55:22.339Z,-0.21
2022-11-20T16:57:57.690Z,-0.23
2022-11-20T17:00:31.693Z,-0.22
2022-11-20T17:03:06.689Z,-0.20
2022-11-20T17:05:45.053Z,-0.24
2022-11-20T17:08:19.376Z,-0.30
2022-11-20T17:10:53.815Z,-0.35
2022-11-20T17:13:30.068Z,-0.36
2022-11-20T17:16:07.300Z,-0.37
2022-11-20T17:18:42.335Z,-0.38
2022-11-20T17:21:17.855Z,-0.41
2022-11-20T17:23:52.299Z,-0.42
2022-11-20T17:26:29.094Z,-0.39
2022-11-20T17:29:06.693Z,-0.40
2022-11-20T17:31:44.900Z,-0.44
2022-11-20T17:34:19.925Z,-0.48
2022-11-20T17:36:56.458Z,-0.51
2022-11-20T17:39:31.091Z,-0.58
2022-11-20T17:42:22.884Z,-0.62
2022-11-20T17:44:59.778Z,-0.64
2022-11-20T17:47:37.341Z,-0.67
2022-11-20T17:50:12.735Z,-0.70
2022-11-20T17:52:48.547Z,-0.73
2022-11-20T17:55:23.595Z,-0.75
2022-11-20T17:58:03.870Z,-0.76
2022-11-20T18:00:38.170Z,-0.79
2022-11-20T18:03:13.015Z,-0.80
2022-11-20T18:05:47.989Z,-0.79
2022-11-20T18:08:22.537Z,-0.76
2022-11-20T18:10:57.142Z,-0.73
2022-11-20T18:13:52.341Z,-0.72
2022-11-20T18:16:28.028Z,-0.72
2022-11-20T18:19:03.989Z,-0.75
2022-11-20T18:21:39.153Z,-0.78
2022-11-20T18:24:15.360Z,-0.81
2022-11-20T18:26:50.831Z,-0.81
2022-11-20T18:29:26.226Z,-0.80
2022-11-20T18:32:02.637Z,-0.79
2022-11-20T18:34:37.822Z,-0.82
2022-11-20T18:37:15.640Z,-0.82
2022-11-20T18:39:51.351Z,-0.80
2022-11-20T18:42:43.825Z,-0.77
2022-11-20T18:45:20.472Z,-0.73
2022-11-20T18:47:56.952Z,-0.65
2022-11-20T18:50:32.265Z,-0.58
2022-11-20T18:53:08.623Z,-0.50
2022-11-20T18:55:43.266Z,-0.42
2022-11-20T18:58:17.545Z,-0.37
2022-11-20T19:00:54.545Z,-0.33
2022-11-20T19:03:31.000Z,-0.31
2022-11-20T19:06:05.994Z,-0.31
2022-11-20T19:08:41.937Z,-0.35
2022-11-20T19:11:17.369Z,-0.40
2022-11-20T19:13:51.771Z,-0.50
2022-11-20T19:16:27.405Z,-0.60
2022-11-20T19:19:03.775Z,-0.67
2022-11-20T19:21:38.969Z,-0.73
2022-11-20T19:24:14.042Z,-0.76
2022-11-20T19:26:49.086Z,-0.80
2022-11-20T19:29:25.103Z,-0.83
2022-11-20T19:32:01.085Z,-0.83
2022-11-20T19:34:36.140Z,-0.81
2022-11-20T19:37:11.873Z,-0.80
2022-11-20T19:39:46.570Z,-0.80
2022-11-20T19:42:21.601Z,-0.85
2022-11-20T19:44:59.131Z,-0.89
2022-11-20T19:48:06.160Z,-0.94
2022-11-20T19:50:31.395Z,-0.98
2022-11-20T19:53:08.818Z,-1.05
2022-11-20T19:55:44.830Z,-1.11
2022-11-20T19:58:23.627Z,-1.14
2022-11-20T20:00:59.031Z,-1.16
2022-11-20T20:03:33.578Z,-1.17
2022-11-20T20:06:09.460Z,-1.17
2022-11-20T20:08:44.633Z,-1.16
2022-11-20T20:11:20.867Z,-1.11
2022-11-20T20:13:57.959Z,-1.01
2022-11-20T20:16:33.378Z,-0.92
2022-11-20T20:19:08.993Z,-0.80
2022-11-20T20:21:43.771Z,-0.73
2022-11-20T20:24:18.959Z,-0.68
2022-11-20T20:26:57.961Z,-0.62
2022-11-20T20:29:34.278Z,-0.55
2022-11-20T20:32:09.449Z,-0.48
2022-11-20T20:34:43.481Z,-0.40
2022-11-20T20:37:18.711Z,-0.36
2022-11-20T20:39:53.606Z,-0.36
2022-11-20T20:42:28.993Z,-0.33
2022-11-20T20:45:11.637Z,-0.30
2022-11-20T20:47:55.821Z,-0.27
2022-11-20T20:50:34.954Z,-0.26
2022-11-20T20:53:09.509Z,-0.25
2022-11-20T20:55:44.269Z,-0.20
2022-11-20T20:58:18.376Z,-0.14
2022-11-20T21:00:53.107Z,-0.10
2022-11-20T21:03:30.673Z,-0.05
2022-11-20T21:06:08.748Z,-0.02
2022-11-20T21:08:44.655Z,0.00
2022-11-20T21:11:20.911Z,0.01
2022-11-20T21:13:54.546Z,0.04
2022-11-20T21:16:42.157Z,0.05
2022-11-20T21:19:16.942Z,0.05
2022-11-20T21:22:00.845Z,0.06
2022-11-20T21:24:35.778Z,0.07
2022-11-20T21:27:09.819Z,0.07
2022-11-20T21:29:43.887Z,0.08
2022-11-20T21:32:18.026Z,0.08
2022-11-20T21:34:52.351Z,0.05
2022-11-20T21:37:26.518Z,0.05
2022-11-20T21:40:00.075Z,0.02
2022-11-20T21:42:33.702Z,0.00
2022-11-20T21:45:08.387Z,-0.02
2022-11-20T21:47:41.855Z,-0.00
2022-11-20T21:50:15.543Z,0.02
2022-11-20T21:52:49.336Z,0.03
2022-11-20T21:55:23.423Z,0.03
2022-11-20T21:57:57.016Z,-0.01
2022-11-20T22:00:30.297Z,-0.04
2022-11-20T22:03:03.994Z,-0.01
2022-11-20T22:05:37.672Z,-0.03
2022-11-20T22:08:11.361Z,-0.05
2022-11-20T22:10:44.562Z,-0.09
2022-11-20T22:13:36.299Z,-0.11
2022-11-20T22:16:10.399Z,-0.15
2022-11-20T22:18:47.498Z,-0.19
2022-11-20T22:21:22.454Z,-0.19
2022-11-20T22:23:56.764Z,-0.22
2022-11-20T22:26:34.930Z,-0.27
2022-11-20T22:29:17.219Z,-0.33
2022-11-20T22:31:52.844Z,-0.41
2022-11-20T22:34:26.434Z,-0.48
2022-11-20T22:37:01.037Z,-0.53
2022-11-20T22:39:34.492Z,-0.61
2022-11-20T22:42:08.210Z,-0.67
2022-11-20T22:44:41.790Z,-0.73
2022-11-20T22:47:15.102Z,-0.76
2022-11-20T22:49:49.075Z,-0.77
2022-11-20T22:52:22.415Z,-0.79
2022-11-20T22:54:55.713Z,-0.84
2022-11-20T22:57:29.210Z,-0.87
2022-11-20T23:00:02.616Z,-0.89
2022-11-20T23:02:36.266Z,-0.88
2022-11-20T23:05:10.775Z,-0.87
2022-11-20T23:07:44.896Z,-0.87
2022-11-20T23:10:18.654Z,-0.88
2022-11-20T23:12:51.866Z,-0.89
2022-11-20T23:15:25.549Z,-0.92
2022-11-20T23:17:58.913Z,-0.98
2022-11-20T23:20:32.885Z,-1.01
2022-11-20T23:23:06.478Z,-1.06
2022-11-20T23:25:39.881Z,-1.10
2022-11-20T23:28:13.636Z,-1.11
2022-11-20T23:30:49.593Z,-1.12
2022-11-20T23:33:22.851Z,-1.12
2022-11-20T23:35:56.472Z,-1.12
2022-11-20T23:38:30.252Z,-1.10
2022-11-20T23:41:04.204Z,-1.09
2022-11-20T23:43:37.769Z,-1.10
2022-11-20T23:46:16.464Z,-1.11
2022-11-20T23:48:50.645Z,-1.12
2022-11-20T23:51:24.532Z,-1.12
2022-11-20T23:54:03.272Z,-1.09
2022-11-20T23:56:38.518Z,-1.05
2022-11-20T23:59:12.364Z,-1.02
